This is the latest recevied weather packets stored in our database for station/object ZL1CTS-2. If no packets are shown the sender has not sent any weather packets the latest 10 day(s).
| Time | Temp. | Humidity | Pressure | Rain* | Wind** | Luminosity | Snow |
|---|---|---|---|---|---|---|---|
| 1788134981 | 58° F | 93% | 748.3 mmHg | 0.03 in | - | - | - |
| 1788134867 | 58° F | 93% | 748.2 mmHg | 0.03 in | - | - | - |
| 1788134688 | 57° F | 91% | 748.2 mmHg | 0.03 in | - | - | - |
| 1788134648 | 57° F | 92% | 748.3 mmHg | 0.03 in | - | - | - |
| 1788134579 | 57° F | 90% | 748.3 mmHg | 0.03 in | - | - | - |
| 1788134055 | 60° F | 82% | 748.2 mmHg | 0 in | - | - | - |
| 1787990628 | 51° F | 90% | 750.1 mmHg | 0 in | - | - | - |
| 1787990551 | 51° F | 90% | 750.1 mmHg | 0 in | - | - | - |
| 1787973990 | 60° F | 74% | 751.3 mmHg | 0 in | - | - | - |
| 1787973898 | 60° F | 74% | 751.4 mmHg | 0 in | - | - | - |
| 1787956065 | 58° F | 99% | 753.7 mmHg | 0 in | - | - | - |
| 1787949365 | 56° F | 99% | 753.8 mmHg | 0 in | - | - | - |
| 1787949291 | 56° F | 99% | 753.8 mmHg | 0 in | - | - | - |
| 1787891402 | 59° F | 91% | 756.3 mmHg | 0 in | - | - | - |
| 1787887454 | 62° F | 82% | 757 mmHg | 0 in | - | - | - |
| 1787886304 | 64° F | 76% | 757.1 mmHg | 0 in | - | - | - |
| 1787885910 | 65° F | 75% | 757.3 mmHg | 0 in | - | - | - |
| 1787885112 | 64° F | 73% | 757.3 mmHg | 0 in | - | - | - |
| 1787885019 | 64° F | 73% | 757.3 mmHg | 0 in | - | - | - |
| 1787884393 | 63° F | 75% | 757.3 mmHg | 0 in | - | - | - |
| 1787884266 | 63° F | 75% | 757.2 mmHg | 0 in | - | - | - |
| 1787884206 | 63° F | 76% | 757.2 mmHg | 0 in | - | - | - |
| 1787884146 | 63° F | 76% | 757.3 mmHg | 0 in | - | - | - |
| 1787884086 | 62° F | 77% | 757.3 mmHg | 0 in | - | - | - |
| 1787884026 | 62° F | 77% | 757.3 mmHg | 0 in | - | - | - |
* Rain latest hour (hover to see other rain measurements)
** Current wind speed in m/s (hover to see current wind gust speed)